createdAt,value
2023-03-13T00:00:59.529Z,5.60
2023-03-13T00:03:27.218Z,5.70
2023-03-13T00:05:58.889Z,5.70
2023-03-13T00:08:28.756Z,5.70
2023-03-13T00:10:55.885Z,5.80
2023-03-13T00:13:22.871Z,5.80
2023-03-13T00:15:49.861Z,5.80
2023-03-13T00:18:16.750Z,5.80
2023-03-13T00:20:43.694Z,5.80
2023-03-13T00:23:10.607Z,5.80
2023-03-13T00:25:37.475Z,5.90
2023-03-13T00:28:04.553Z,5.90
2023-03-13T00:30:31.498Z,6.00
2023-03-13T00:32:58.614Z,6.00
2023-03-13T00:35:25.630Z,6.00
2023-03-13T00:37:52.532Z,5.90
2023-03-13T00:40:20.351Z,5.90
2023-03-13T00:42:47.223Z,5.90
2023-03-13T00:45:14.108Z,5.90
2023-03-13T00:47:41.258Z,5.80
2023-03-13T00:50:08.547Z,5.80
2023-03-13T00:52:35.408Z,5.80
2023-03-13T00:55:02.330Z,5.80
2023-03-13T00:57:29.197Z,5.80
2023-03-13T00:59:56.071Z,5.90
2023-03-13T01:02:23.041Z,5.80
2023-03-13T01:04:50.006Z,5.90
2023-03-13T01:07:16.879Z,5.90
2023-03-13T01:09:43.781Z,5.90
2023-03-13T01:12:10.657Z,5.80
2023-03-13T01:14:37.525Z,5.80
2023-03-13T01:17:04.464Z,5.80
2023-03-13T01:19:31.334Z,5.70
2023-03-13T01:21:58.207Z,5.70
2023-03-13T01:24:25.389Z,5.50
2023-03-13T01:26:52.284Z,5.40
2023-03-13T01:29:19.187Z,5.40
2023-03-13T01:31:46.139Z,5.40
2023-03-13T01:34:13.015Z,5.50
2023-03-13T01:36:40.062Z,5.60
2023-03-13T01:39:07.368Z,5.60
2023-03-13T01:41:34.627Z,5.70
2023-03-13T01:44:01.573Z,5.80
2023-03-13T01:46:30.299Z,5.70
2023-03-13T01:49:15.678Z,5.80
2023-03-13T01:51:48.110Z,5.80
2023-03-13T01:54:16.849Z,5.80
2023-03-13T01:56:50.401Z,5.80
2023-03-13T01:59:22.525Z,5.90
2023-03-13T02:01:52.126Z,5.70
2023-03-13T02:04:22.086Z,5.70
2023-03-13T02:06:54.848Z,5.70
2023-03-13T02:09:27.034Z,5.70
2023-03-13T02:12:06.357Z,5.70
2023-03-13T02:14:37.245Z,5.70
2023-03-13T02:17:06.837Z,5.70
2023-03-13T02:19:48.628Z,5.80
2023-03-13T02:22:47.741Z,5.80
2023-03-13T02:25:23.722Z,5.70
2023-03-13T02:28:00.582Z,5.70
2023-03-13T02:30:28.385Z,5.70
2023-03-13T02:32:56.380Z,5.70
2023-03-13T02:35:24.383Z,5.70
2023-03-13T02:37:55.587Z,5.70
2023-03-13T02:40:26.660Z,5.80
2023-03-13T02:42:56.192Z,5.80
2023-03-13T02:45:23.393Z,5.70
2023-03-13T02:47:50.392Z,5.70
2023-03-13T02:50:18.212Z,5.80
2023-03-13T02:52:51.109Z,5.80
2023-03-13T02:55:26.348Z,5.80
2023-03-13T02:57:53.298Z,5.80
2023-03-13T03:00:20.878Z,5.60
2023-03-13T03:02:47.782Z,5.60
2023-03-13T03:05:14.742Z,5.60
2023-03-13T03:07:41.661Z,5.60
2023-03-13T03:10:08.900Z,5.60
2023-03-13T03:12:35.770Z,5.60
2023-03-13T03:15:04.810Z,5.60
2023-03-13T03:17:31.770Z,5.70
2023-03-13T03:19:58.652Z,5.70
2023-03-13T03:22:25.590Z,5.80
2023-03-13T03:24:52.526Z,5.80
2023-03-13T03:27:19.396Z,5.90
2023-03-13T03:29:46.250Z,5.90
2023-03-13T03:32:13.238Z,5.90
2023-03-13T03:34:40.186Z,5.80
2023-03-13T03:37:07.080Z,5.90
2023-03-13T03:39:33.945Z,5.80
2023-03-13T03:42:00.793Z,5.70
2023-03-13T03:44:27.756Z,5.60
2023-03-13T03:46:54.632Z,5.60
2023-03-13T03:49:21.719Z,5.60
2023-03-13T03:51:49.598Z,5.60
2023-03-13T03:54:16.482Z,5.50
2023-03-13T03:56:43.386Z,5.40
2023-03-13T03:59:10.246Z,5.40
2023-03-13T04:01:37.116Z,5.30
2023-03-13T04:04:04.137Z,5.30
2023-03-13T04:06:31.076Z,5.20
2023-03-13T04:08:57.972Z,5.20
2023-03-13T04:11:24.887Z,5.10
2023-03-13T04:13:51.745Z,5.10
2023-03-13T04:16:18.637Z,5.00
2023-03-13T04:18:45.534Z,5.00
2023-03-13T04:21:12.416Z,4.90
2023-03-13T04:23:39.323Z,4.90
2023-03-13T04:26:06.199Z,5.00
2023-03-13T04:28:33.115Z,5.00
2023-03-13T04:31:01.420Z,5.00
2023-03-13T04:33:28.411Z,5.00
2023-03-13T04:35:55.398Z,5.00
2023-03-13T04:38:22.318Z,5.00
2023-03-13T04:40:49.272Z,5.00
2023-03-13T04:43:16.151Z,4.90
2023-03-13T04:45:43.157Z,4.90
2023-03-13T04:48:10.076Z,4.90
2023-03-13T04:50:37.075Z,4.90
2023-03-13T04:53:04.589Z,4.90
2023-03-13T04:55:31.512Z,4.90
2023-03-13T04:57:58.387Z,4.90
2023-03-13T05:00:25.382Z,4.90
2023-03-13T05:02:52.266Z,5.00
2023-03-13T05:05:19.250Z,5.00
2023-03-13T05:07:46.169Z,5.00
2023-03-13T05:10:13.136Z,5.00
2023-03-13T05:12:40.033Z,5.10
2023-03-13T05:15:07.496Z,5.10
2023-03-13T05:17:34.677Z,5.20
2023-03-13T05:20:01.705Z,5.20
2023-03-13T05:22:28.546Z,5.30
2023-03-13T05:24:55.434Z,5.30
2023-03-13T05:27:22.295Z,5.40
2023-03-13T05:29:49.170Z,5.40
2023-03-13T05:32:16.159Z,5.40
2023-03-13T05:34:43.120Z,5.30
2023-03-13T05:37:10.104Z,5.30
2023-03-13T05:39:37.038Z,5.30
2023-03-13T05:42:04.105Z,5.30
2023-03-13T05:44:31.090Z,5.40
2023-03-13T05:46:57.992Z,5.40
2023-03-13T05:49:24.899Z,5.40
2023-03-13T05:51:51.760Z,5.40
2023-03-13T05:54:18.615Z,5.40
2023-03-13T05:56:48.787Z,5.40
2023-03-13T05:59:15.682Z,5.40
2023-03-13T06:01:42.573Z,5.50
2023-03-13T06:04:09.800Z,5.50
2023-03-13T06:06:36.788Z,5.50
2023-03-13T06:09:04.173Z,5.50
2023-03-13T06:11:31.069Z,5.50
2023-03-13T06:13:58.000Z,5.50
2023-03-13T06:16:24.974Z,5.60
2023-03-13T06:18:51.840Z,5.60
2023-03-13T06:21:18.779Z,5.70
2023-03-13T06:23:45.859Z,5.70
2023-03-13T06:26:12.771Z,5.80
2023-03-13T06:28:39.675Z,5.90
2023-03-13T06:31:07.845Z,5.90
2023-03-13T06:33:35.131Z,6.10
2023-03-13T06:36:02.858Z,6.40
2023-03-13T06:38:30.537Z,6.60
2023-03-13T06:40:57.613Z,6.80
2023-03-13T06:43:24.751Z,7.20
2023-03-13T06:45:51.686Z,7.40
2023-03-13T06:48:18.752Z,7.70
2023-03-13T06:50:45.720Z,7.80
2023-03-13T06:53:17.513Z,8.00
2023-03-13T06:55:45.279Z,8.40
2023-03-13T06:58:25.271Z,8.60
2023-03-13T07:00:57.907Z,8.80
2023-03-13T07:03:24.987Z,9.10
2023-03-13T07:05:59.433Z,9.10
2023-03-13T07:08:27.507Z,9.10
2023-03-13T07:10:58.334Z,9.20
2023-03-13T07:13:25.391Z,9.40
2023-03-13T07:15:52.672Z,9.50
2023-03-13T07:18:20.043Z,9.40
2023-03-13T07:20:56.312Z,9.50
2023-03-13T07:23:24.533Z,9.90
2023-03-13T07:26:02.876Z,10.20
2023-03-13T07:28:35.564Z,10.30
2023-03-13T07:31:10.567Z,10.50
2023-03-13T07:33:37.661Z,10.90
2023-03-13T07:36:05.221Z,11.00
2023-03-13T07:38:32.435Z,11.20
2023-03-13T07:40:59.456Z,11.50
2023-03-13T07:43:26.852Z,11.90
2023-03-13T07:46:04.679Z,11.80
2023-03-13T07:48:42.941Z,11.90
2023-03-13T07:51:15.345Z,12.20
2023-03-13T07:53:43.103Z,12.60
2023-03-13T07:56:15.239Z,12.90
2023-03-13T07:58:43.420Z,13.10
2023-03-13T08:01:20.523Z,13.30
2023-03-13T08:03:51.333Z,13.60
2023-03-13T08:06:21.363Z,14.00
2023-03-13T08:08:48.303Z,14.10
2023-03-13T08:11:24.977Z,14.10
2023-03-13T08:13:53.372Z,14.10
2023-03-13T08:16:22.997Z,14.10
2023-03-13T08:18:55.351Z,14.20
2023-03-13T08:21:27.719Z,14.40
2023-03-13T08:23:57.038Z,14.60
2023-03-13T08:26:26.693Z,15.30
2023-03-13T08:29:10.932Z,15.50
2023-03-13T08:31:44.012Z,15.50
2023-03-13T08:34:12.740Z,15.50
2023-03-13T08:36:39.985Z,15.70
2023-03-13T08:39:14.200Z,15.80
2023-03-13T08:41:41.482Z,15.70
2023-03-13T08:44:11.892Z,16.10
2023-03-13T08:46:39.398Z,16.40
2023-03-13T08:49:08.183Z,16.80
2023-03-13T08:51:36.116Z,16.90
2023-03-13T08:54:04.332Z,16.90
2023-03-13T08:56:32.132Z,16.90
2023-03-13T08:59:01.745Z,16.90
2023-03-13T09:01:31.705Z,17.10
2023-03-13T09:04:01.262Z,17.40
2023-03-13T09:06:30.239Z,17.70
2023-03-13T09:08:58.325Z,17.90
2023-03-13T09:11:26.009Z,17.70
2023-03-13T09:13:55.308Z,17.80
2023-03-13T09:16:25.279Z,18.00
2023-03-13T09:18:53.156Z,18.20
2023-03-13T09:21:29.240Z,17.80
2023-03-13T09:23:56.575Z,17.90
2023-03-13T09:26:24.657Z,17.90
2023-03-13T09:28:52.309Z,17.90
2023-03-13T09:31:22.630Z,17.60
2023-03-13T09:33:50.723Z,16.80
2023-03-13T09:36:21.505Z,16.70
2023-03-13T09:38:48.860Z,16.60
2023-03-13T09:41:18.491Z,16.80
2023-03-13T09:43:58.863Z,16.40
2023-03-13T09:46:34.039Z,16.30
2023-03-13T09:49:07.503Z,16.60
2023-03-13T09:51:41.287Z,16.80
2023-03-13T09:54:17.249Z,16.70
2023-03-13T09:57:15.453Z,16.90
2023-03-13T09:59:48.383Z,16.80
2023-03-13T10:02:36.196Z,16.30
2023-03-13T10:05:09.653Z,15.90
2023-03-13T10:07:37.204Z,15.60
2023-03-13T10:10:08.063Z,15.60
2023-03-13T10:12:44.940Z,15.70
2023-03-13T10:15:42.994Z,15.60
2023-03-13T10:18:21.653Z,15.70
2023-03-13T10:20:54.242Z,15.80
2023-03-13T10:23:41.373Z,16.10
2023-03-13T10:26:19.635Z,16.30
2023-03-13T10:28:46.618Z,16.00
2023-03-13T10:31:37.585Z,16.10
2023-03-13T10:34:13.172Z,16.00
2023-03-13T10:36:45.636Z,15.90
2023-03-13T10:39:19.535Z,15.90
2023-03-13T10:41:48.406Z,16.10
2023-03-13T10:44:20.958Z,16.00
2023-03-13T10:46:50.455Z,16.00
2023-03-13T10:49:23.509Z,15.70
2023-03-13T10:51:53.372Z,15.60
2023-03-13T10:54:32.269Z,15.40
2023-03-13T10:57:26.999Z,15.40
2023-03-13T10:59:55.046Z,15.50
2023-03-13T11:02:38.623Z,15.40
2023-03-13T11:05:44.836Z,15.40
2023-03-13T11:08:16.212Z,15.60
2023-03-13T11:11:19.564Z,15.60
2023-03-13T11:13:46.948Z,15.60
2023-03-13T11:16:28.236Z,15.30
2023-03-13T11:19:13.600Z,15.30
2023-03-13T11:22:04.313Z,15.20
2023-03-13T11:24:56.052Z,15.10
2023-03-13T11:27:41.691Z,14.90
2023-03-13T11:30:17.740Z,15.00
2023-03-13T11:33:11.900Z,15.10
2023-03-13T11:35:56.369Z,15.20
2023-03-13T11:38:33.351Z,15.20
2023-03-13T11:41:44.960Z,15.00
2023-03-13T11:44:43.961Z,15.00
2023-03-13T11:47:28.651Z,15.00
2023-03-13T11:50:08.241Z,15.10
2023-03-13T11:53:16.652Z,14.80
2023-03-13T11:56:03.814Z,14.60
2023-03-13T11:58:51.648Z,14.60
2023-03-13T12:01:20.958Z,14.50
2023-03-13T12:03:56.685Z,14.60
2023-03-13T12:06:28.581Z,14.70
2023-03-13T12:09:09.710Z,15.00
2023-03-13T12:12:15.612Z,15.20
2023-03-13T12:15:05.123Z,15.20
2023-03-13T12:17:34.992Z,15.10
2023-03-13T12:20:09.272Z,14.90
2023-03-13T12:22:42.858Z,14.90
2023-03-13T12:25:23.357Z,14.90
2023-03-13T12:27:55.928Z,14.90
2023-03-13T12:30:36.315Z,15.10
2023-03-13T12:33:16.106Z,15.20
2023-03-13T12:35:47.509Z,15.30
2023-03-13T12:38:31.384Z,15.40
2023-03-13T12:41:24.841Z,15.40
2023-03-13T12:44:07.785Z,15.40
2023-03-13T12:46:38.310Z,15.20
2023-03-13T12:49:24.063Z,15.10
2023-03-13T12:52:24.885Z,15.20
2023-03-13T12:55:06.950Z,15.40
2023-03-13T12:58:07.588Z,15.60
2023-03-13T13:00:40.028Z,15.70
2023-03-13T13:03:11.314Z,15.80
2023-03-13T13:05:38.492Z,15.60
2023-03-13T13:08:05.791Z,15.40
2023-03-13T13:10:32.762Z,15.30
2023-03-13T13:13:14.689Z,15.20
2023-03-13T13:15:59.757Z,15.10
2023-03-13T13:18:28.971Z,15.00
2023-03-13T13:21:07.393Z,14.90
2023-03-13T13:23:46.586Z,14.90
2023-03-13T13:26:33.795Z,15.00
2023-03-13T13:29:21.684Z,15.10
2023-03-13T13:31:49.561Z,15.30
2023-03-13T13:34:28.976Z,15.40
2023-03-13T13:36:59.493Z,15.50
2023-03-13T13:39:50.184Z,15.50
2023-03-13T13:42:42.243Z,15.50
2023-03-13T13:45:15.207Z,15.40
2023-03-13T13:47:45.625Z,15.60
2023-03-13T13:50:27.627Z,15.50
2023-03-13T13:53:34.872Z,15.60
2023-03-13T13:56:10.288Z,15.60
2023-03-13T13:58:44.188Z,15.60
2023-03-13T14:01:17.276Z,15.50
2023-03-13T14:03:45.004Z,15.40
2023-03-13T14:06:20.483Z,15.50
2023-03-13T14:08:51.858Z,15.40
2023-03-13T14:11:37.576Z,15.40
2023-03-13T14:14:17.400Z,15.40
2023-03-13T14:16:52.756Z,15.40
2023-03-13T14:19:26.252Z,15.30
2023-03-13T14:22:03.042Z,15.30
2023-03-13T14:24:29.999Z,15.30
2023-03-13T14:26:57.223Z,15.20
2023-03-13T14:29:27.059Z,15.30
2023-03-13T14:31:56.305Z,15.30
2023-03-13T14:34:23.856Z,15.30
2023-03-13T14:37:15.006Z,15.40
2023-03-13T14:39:46.503Z,15.40
2023-03-13T14:42:16.403Z,15.40
2023-03-13T14:44:46.674Z,15.40
2023-03-13T14:47:31.320Z,15.30
2023-03-13T14:50:09.765Z,15.30
2023-03-13T14:52:37.219Z,15.20
2023-03-13T14:55:24.005Z,15.20
2023-03-13T14:58:04.165Z,15.20
2023-03-13T15:00:41.599Z,15.20
2023-03-13T15:03:18.975Z,15.10
2023-03-13T15:06:02.487Z,15.20
2023-03-13T15:08:30.385Z,15.10
2023-03-13T15:10:57.892Z,15.20
2023-03-13T15:13:32.274Z,15.10
2023-03-13T15:15:59.891Z,15.10
2023-03-13T15:18:31.995Z,15.00
2023-03-13T15:21:13.939Z,15.00
2023-03-13T15:23:42.391Z,15.00
2023-03-13T15:26:09.282Z,15.00
2023-03-13T15:28:36.269Z,15.00
2023-03-13T15:31:03.207Z,15.00
2023-03-13T15:33:30.568Z,15.00
2023-03-13T15:35:57.767Z,15.00
2023-03-13T15:38:27.404Z,15.00
2023-03-13T15:40:54.707Z,14.90
2023-03-13T15:43:23.093Z,14.80
2023-03-13T15:45:51.977Z,14.80
2023-03-13T15:48:24.171Z,14.70
2023-03-13T15:50:59.874Z,14.70
2023-03-13T15:53:30.345Z,14.60
2023-03-13T15:56:01.611Z,14.60
2023-03-13T15:58:30.082Z,14.50
2023-03-13T16:00:57.839Z,14.50
2023-03-13T16:03:26.992Z,14.40
2023-03-13T16:05:55.061Z,14.40
2023-03-13T16:08:35.326Z,14.40
2023-03-13T16:11:04.377Z,14.40
2023-03-13T16:13:31.582Z,14.40
2023-03-13T16:15:58.713Z,14.30
2023-03-13T16:18:25.901Z,14.30
2023-03-13T16:20:53.737Z,14.30
2023-03-13T16:23:20.668Z,14.20
2023-03-13T16:25:49.001Z,14.20
2023-03-13T16:28:16.838Z,14.20
2023-03-13T16:30:44.195Z,14.20
2023-03-13T16:33:12.003Z,14.20
2023-03-13T16:35:39.734Z,14.20
2023-03-13T16:38:09.814Z,14.20
2023-03-13T16:40:36.803Z,14.20
2023-03-13T16:43:03.754Z,14.10
2023-03-13T16:45:30.795Z,14.10
2023-03-13T16:47:57.702Z,14.00
2023-03-13T16:50:27.714Z,14.00
2023-03-13T16:52:55.390Z,14.00
2023-03-13T16:55:28.841Z,14.00
2023-03-13T16:57:58.121Z,14.00
2023-03-13T17:00:27.553Z,14.00
2023-03-13T17:02:55.173Z,13.90
2023-03-13T17:05:22.153Z,13.90
2023-03-13T17:07:50.958Z,13.90
2023-03-13T17:10:23.896Z,13.80
2023-03-13T17:12:51.590Z,13.80
2023-03-13T17:15:20.844Z,13.80
2023-03-13T17:17:52.073Z,13.80
2023-03-13T17:20:23.483Z,13.80
2023-03-13T17:22:51.312Z,13.80
2023-03-13T17:25:18.713Z,13.80
2023-03-13T17:27:47.640Z,13.70
2023-03-13T17:30:26.907Z,13.70
2023-03-13T17:32:54.256Z,13.60
2023-03-13T17:35:21.837Z,13.60
2023-03-13T17:37:49.488Z,13.60
2023-03-13T17:40:21.938Z,13.60
2023-03-13T17:42:49.735Z,13.50
2023-03-13T17:45:17.837Z,13.50
2023-03-13T17:47:45.506Z,13.50
2023-03-13T17:50:22.550Z,13.40
2023-03-13T17:52:50.234Z,13.40
2023-03-13T17:55:17.320Z,13.30
2023-03-13T17:57:44.470Z,13.30
2023-03-13T18:00:19.676Z,13.20
2023-03-13T18:02:47.160Z,13.20
2023-03-13T18:05:14.477Z,13.10
2023-03-13T18:07:44.730Z,13.00
2023-03-13T18:10:26.071Z,13.00
2023-03-13T18:12:53.628Z,13.00
2023-03-13T18:15:22.484Z,12.90
2023-03-13T18:17:50.861Z,12.80
2023-03-13T18:20:27.387Z,12.80
2023-03-13T18:22:59.570Z,12.80
2023-03-13T18:25:28.550Z,12.70
2023-03-13T18:27:56.580Z,12.60
2023-03-13T18:30:26.879Z,12.60
2023-03-13T18:32:55.402Z,12.50
2023-03-13T18:35:22.845Z,12.50
2023-03-13T18:38:10.300Z,12.50
2023-03-13T18:40:37.791Z,12.50
2023-03-13T18:43:06.348Z,12.50
2023-03-13T18:45:34.058Z,12.40
2023-03-13T18:48:01.509Z,12.30
2023-03-13T18:50:32.519Z,12.30
2023-03-13T18:53:01.285Z,12.20
2023-03-13T18:55:31.952Z,12.20
2023-03-13T18:57:59.444Z,12.20
2023-03-13T19:00:29.921Z,12.10
2023-03-13T19:02:57.543Z,12.10
2023-03-13T19:05:25.466Z,12.00
2023-03-13T19:07:53.413Z,12.00
2023-03-13T19:10:34.787Z,12.00
2023-03-13T19:13:02.746Z,11.90
2023-03-13T19:15:32.134Z,11.90
2023-03-13T19:18:05.534Z,11.80
2023-03-13T19:20:33.441Z,11.70
2023-03-13T19:23:01.383Z,11.70
2023-03-13T19:25:30.076Z,11.60
2023-03-13T19:27:58.059Z,11.60
2023-03-13T19:30:30.166Z,11.60
2023-03-13T19:33:00.901Z,11.60
2023-03-13T19:35:29.068Z,11.60
2023-03-13T19:37:57.193Z,11.50
2023-03-13T19:40:29.438Z,11.50
2023-03-13T19:42:57.063Z,11.40
2023-03-13T19:45:25.792Z,11.40
2023-03-13T19:47:53.505Z,11.30
2023-03-13T19:50:28.337Z,11.30
2023-03-13T19:52:56.388Z,11.20
2023-03-13T19:55:23.601Z,11.10
2023-03-13T19:57:51.064Z,11.10
2023-03-13T20:00:21.985Z,11.00
2023-03-13T20:02:52.603Z,10.90
2023-03-13T20:05:20.694Z,10.80
2023-03-13T20:07:51.812Z,10.80
2023-03-13T20:10:19.638Z,10.70
2023-03-13T20:12:48.846Z,10.70
2023-03-13T20:15:17.006Z,10.70
2023-03-13T20:17:45.207Z,10.70
2023-03-13T20:20:14.188Z,10.70
2023-03-13T20:22:45.407Z,10.60
2023-03-13T20:25:13.342Z,10.50
2023-03-13T20:27:41.009Z,10.50
2023-03-13T20:30:09.388Z,10.50
2023-03-13T20:32:39.385Z,10.50
2023-03-13T20:35:14.477Z,10.40
2023-03-13T20:37:42.685Z,10.40
2023-03-13T20:40:12.821Z,10.30
2023-03-13T20:42:40.965Z,10.20
2023-03-13T20:45:13.891Z,10.20
2023-03-13T20:47:41.961Z,10.20
2023-03-13T20:50:10.457Z,10.10
2023-03-13T20:52:38.212Z,10.10
2023-03-13T20:55:06.638Z,10.10
2023-03-13T20:57:36.091Z,10.00
2023-03-13T21:00:07.661Z,10.00
2023-03-13T21:02:35.498Z,9.90
2023-03-13T21:05:02.962Z,9.90
2023-03-13T21:07:30.315Z,9.80
2023-03-13T21:09:58.050Z,9.80
2023-03-13T21:12:26.064Z,9.70
2023-03-13T21:14:55.350Z,9.70
2023-03-13T21:17:22.584Z,9.70
2023-03-13T21:19:50.141Z,9.50
2023-03-13T21:22:18.506Z,9.40
2023-03-13T21:24:49.039Z,9.40
2023-03-13T21:27:17.312Z,9.30
2023-03-13T21:29:47.309Z,9.30
2023-03-13T21:32:15.095Z,9.20
2023-03-13T21:34:44.627Z,9.20
2023-03-13T21:37:13.695Z,9.20
2023-03-13T21:39:44.154Z,9.20
2023-03-13T21:42:13.382Z,9.00
2023-03-13T21:44:40.568Z,9.00
2023-03-13T21:47:07.820Z,9.00
2023-03-13T21:49:34.796Z,9.00
2023-03-13T21:52:01.710Z,9.00
2023-03-13T21:54:28.811Z,9.00
2023-03-13T21:56:57.157Z,9.00
2023-03-13T21:59:26.168Z,8.90
2023-03-13T22:01:53.958Z,9.00
2023-03-13T22:04:21.700Z,8.90
2023-03-13T22:06:48.856Z,8.90
2023-03-13T22:09:15.860Z,8.90
2023-03-13T22:11:42.716Z,8.90
2023-03-13T22:14:09.704Z,8.90
2023-03-13T22:16:36.627Z,9.00
2023-03-13T22:19:03.622Z,9.10
2023-03-13T22:21:30.529Z,9.00
2023-03-13T22:23:57.421Z,9.00
2023-03-13T22:26:24.385Z,9.10
2023-03-13T22:28:51.526Z,9.00
2023-03-13T22:31:18.639Z,9.10
2023-03-13T22:33:45.580Z,9.10
2023-03-13T22:36:12.558Z,9.00
2023-03-13T22:38:40.004Z,9.00
2023-03-13T22:41:09.446Z,9.00
2023-03-13T22:43:36.396Z,9.00
2023-03-13T22:46:04.692Z,8.90
2023-03-13T22:48:32.209Z,8.90
2023-03-13T22:51:19.343Z,8.90
2023-03-13T22:53:46.258Z,8.80
2023-03-13T22:56:13.258Z,8.80
2023-03-13T22:58:41.289Z,8.80
2023-03-13T23:01:09.738Z,8.80
2023-03-13T23:03:36.830Z,8.90
2023-03-13T23:06:08.382Z,8.90
2023-03-13T23:08:36.041Z,8.90
2023-03-13T23:11:04.768Z,8.90
2023-03-13T23:13:32.457Z,8.80
2023-03-13T23:16:00.013Z,8.90
2023-03-13T23:18:28.105Z,8.90
2023-03-13T23:20:55.315Z,8.90
2023-03-13T23:23:22.328Z,8.90
2023-03-13T23:25:49.481Z,8.90
2023-03-13T23:28:16.450Z,9.00
2023-03-13T23:30:43.317Z,8.90
2023-03-13T23:33:10.289Z,9.00
2023-03-13T23:35:38.082Z,9.00
2023-03-13T23:38:05.052Z,9.00
2023-03-13T23:40:32.784Z,9.00
2023-03-13T23:42:59.801Z,9.00
2023-03-13T23:45:26.716Z,9.00
2023-03-13T23:47:54.332Z,9.00
2023-03-13T23:50:22.226Z,9.00
2023-03-13T23:52:49.120Z,9.00
2023-03-13T23:55:16.276Z,9.00
2023-03-13T23:57:43.222Z,8.90
